Terminal Aerodrome Forecast
Issued by NWS Brownsville, TX

Home | Current Version | Previous Version | Text Only | Print | Product List | Glossary On
Versions: 1 2 3 4 5 6 7 8 9 10 11 12 13 14
000
FTUS44 KBRO 251700
TAFHRL
TAF
KHRL 251724Z 2518/2618 05008KT P6SM FEW040
     FM261000 00000KT 3SM BR SKC
     FM261430 13005KT P6SM FEW035=

USA.gov is the U.S. government's official web portal to all federal, state and local government web resources and services.